sensor_id;sensor_type;location;lat;lon;timestamp;pressure;altitude;pressure_sealevel;temperature;humidity
40171;BME280;37650;52.790;18.268;2023-04-20T00:00:20;100988.64;;;6.00;100.00
40171;BME280;37650;52.790;18.268;2023-04-20T00:03:50;100989.67;;;6.00;100.00
40171;BME280;37650;52.790;18.268;2023-04-20T00:07:12;100982.20;;;5.99;100.00
40171;BME280;37650;52.790;18.268;2023-04-20T00:10:33;100985.39;;;5.92;100.00
40171;BME280;37650;52.790;18.268;2023-04-20T00:13:54;100988.19;;;5.89;100.00
40171;BME280;37650;52.790;18.268;2023-04-20T00:17:16;100988.72;;;5.89;100.00
40171;BME280;37650;52.790;18.268;2023-04-20T00:20:37;100994.13;;;5.88;100.00
40171;BME280;37650;52.790;18.268;2023-04-20T00:23:58;100998.10;;;5.93;100.00
40171;BME280;37650;52.790;18.268;2023-04-20T00:27:19;100999.41;;;6.00;100.00
40171;BME280;37650;52.790;18.268;2023-04-20T00:30:40;100993.96;;;6.07;100.00
40171;BME280;37650;52.790;18.268;2023-04-20T00:34:01;100998.26;;;6.14;100.00
40171;BME280;37650;52.790;18.268;2023-04-20T00:37:23;100999.23;;;6.20;100.00
40171;BME280;37650;52.790;18.268;2023-04-20T00:40:49;100999.02;;;6.27;100.00
40171;BME280;37650;52.790;18.268;2023-04-20T00:44:14;100998.08;;;6.33;100.00
40171;BME280;37650;52.790;18.268;2023-04-20T00:47:35;100999.05;;;6.41;100.00
40171;BME280;37650;52.790;18.268;2023-04-20T00:50:56;100998.64;;;6.46;100.00
40171;BME280;37650;52.790;18.268;2023-04-20T00:54:18;100998.04;;;6.53;100.00
40171;BME280;37650;52.790;18.268;2023-04-20T00:57:40;100993.09;;;6.60;100.00
40171;BME280;37650;52.790;18.268;2023-04-20T01:01:01;100997.06;;;6.63;100.00
40171;BME280;37650;52.790;18.268;2023-04-20T01:04:22;101000.17;;;6.66;100.00
40171;BME280;37650;52.790;18.268;2023-04-20T01:07:44;100996.13;;;6.68;100.00
40171;BME280;37650;52.790;18.268;2023-04-20T01:11:05;100995.03;;;6.72;100.00
40171;BME280;37650;52.790;18.268;2023-04-20T01:14:27;100999.13;;;6.81;100.00
40171;BME280;37650;52.790;18.268;2023-04-20T01:17:48;100995.20;;;6.89;100.00
40171;BME280;37650;52.790;18.268;2023-04-20T01:21:11;100994.96;;;6.93;100.00
40171;BME280;37650;52.790;18.268;2023-04-20T01:24:33;100993.37;;;6.95;100.00
40171;BME280;37650;52.790;18.268;2023-04-20T01:27:54;100991.79;;;6.96;100.00
40171;BME280;37650;52.790;18.268;2023-04-20T01:31:15;100987.72;;;7.01;100.00
40171;BME280;37650;52.790;18.268;2023-04-20T01:34:37;100985.27;;;7.01;100.00
40171;BME280;37650;52.790;18.268;2023-04-20T01:37:58;100984.04;;;7.03;100.00
40171;BME280;37650;52.790;18.268;2023-04-20T01:41:19;100985.90;;;7.06;100.00
40171;BME280;37650;52.790;18.268;2023-04-20T01:44:43;100978.71;;;7.09;100.00
40171;BME280;37650;52.790;18.268;2023-04-20T01:48:04;100980.96;;;7.10;100.00
40171;BME280;37650;52.790;18.268;2023-04-20T01:51:26;100982.50;;;7.12;100.00
40171;BME280;37650;52.790;18.268;2023-04-20T01:54:48;100980.93;;;7.13;100.00
40171;BME280;37650;52.790;18.268;2023-04-20T01:58:10;100978.64;;;7.14;100.00
40171;BME280;37650;52.790;18.268;2023-04-20T02:01:31;100979.16;;;7.15;100.00
40171;BME280;37650;52.790;18.268;2023-04-20T02:04:54;100977.19;;;7.19;100.00
40171;BME280;37650;52.790;18.268;2023-04-20T02:08:15;100979.20;;;7.25;100.00
40171;BME280;37650;52.790;18.268;2023-04-20T02:11:37;100980.38;;;7.27;100.00
40171;BME280;37650;52.790;18.268;2023-04-20T02:15:00;100980.92;;;7.26;100.00
40171;BME280;37650;52.790;18.268;2023-04-20T02:18:21;100981.06;;;7.28;100.00
40171;BME280;37650;52.790;18.268;2023-04-20T02:21:43;100980.56;;;7.27;100.00
40171;BME280;37650;52.790;18.268;2023-04-20T02:25:05;100979.90;;;7.25;100.00
40171;BME280;37650;52.790;18.268;2023-04-20T02:28:26;100978.78;;;7.30;100.00
40171;BME280;37650;52.790;18.268;2023-04-20T02:31:47;100977.34;;;7.33;100.00
40171;BME280;37650;52.790;18.268;2023-04-20T02:35:10;100979.59;;;7.34;100.00
40171;BME280;37650;52.790;18.268;2023-04-20T02:38:31;100980.12;;;7.34;100.00
40171;BME280;37650;52.790;18.268;2023-04-20T02:41:54;100979.63;;;7.32;100.00
40171;BME280;37650;52.790;18.268;2023-04-20T02:45:15;100987.34;;;7.29;100.00
40171;BME280;37650;52.790;18.268;2023-04-20T02:48:38;100989.60;;;7.30;100.00
40171;BME280;37650;52.790;18.268;2023-04-20T02:52:00;100987.37;;;7.27;100.00
40171;BME280;37650;52.790;18.268;2023-04-20T02:55:21;100986.06;;;7.21;100.00
40171;BME280;37650;52.790;18.268;2023-04-20T02:58:43;100987.05;;;7.12;100.00
40171;BME280;37650;52.790;18.268;2023-04-20T03:02:10;100983.98;;;7.07;100.00
40171;BME280;37650;52.790;18.268;2023-04-20T03:05:32;100985.80;;;7.00;100.00
40171;BME280;37650;52.790;18.268;2023-04-20T03:08:53;100984.48;;;6.95;100.00
40171;BME280;37650;52.790;18.268;2023-04-20T03:12:33;100984.52;;;6.92;100.00
40171;BME280;37650;52.790;18.268;2023-04-20T03:16:13;100983.34;;;6.89;100.00
40171;BME280;37650;52.790;18.268;2023-04-20T03:19:42;100982.09;;;6.90;100.00
40171;BME280;37650;52.790;18.268;2023-04-20T03:23:02;100983.35;;;6.88;100.00
40171;BME280;37650;52.790;18.268;2023-04-20T03:26:24;100985.11;;;6.85;100.00
40171;BME280;37650;52.790;18.268;2023-04-20T03:30:14;100984.77;;;6.85;100.00
40171;BME280;37650;52.790;18.268;2023-04-20T03:33:36;100987.42;;;6.83;100.00
40171;BME280;37650;52.790;18.268;2023-04-20T03:36:57;100989.18;;;6.81;100.00
40171;BME280;37650;52.790;18.268;2023-04-20T03:40:18;100989.54;;;6.81;100.00
40171;BME280;37650;52.790;18.268;2023-04-20T03:43:39;100994.06;;;6.80;100.00
40171;BME280;37650;52.790;18.268;2023-04-20T03:47:01;100994.66;;;6.75;100.00
40171;BME280;37650;52.790;18.268;2023-04-20T03:50:22;100993.62;;;6.74;100.00
40171;BME280;37650;52.790;18.268;2023-04-20T03:53:44;100999.55;;;6.75;100.00
40171;BME280;37650;52.790;18.268;2023-04-20T03:57:05;101001.63;;;6.77;100.00
40171;BME280;37650;52.790;18.268;2023-04-20T04:00:27;100999.53;;;6.77;100.00
40171;BME280;37650;52.790;18.268;2023-04-20T04:03:51;101001.57;;;6.81;100.00
40171;BME280;37650;52.790;18.268;2023-04-20T04:07:13;101000.08;;;6.89;100.00
40171;BME280;37650;52.790;18.268;2023-04-20T04:10:34;101003.14;;;6.95;100.00
40171;BME280;37650;52.790;18.268;2023-04-20T04:13:58;101003.98;;;6.98;100.00
40171;BME280;37650;52.790;18.268;2023-04-20T04:17:20;101000.27;;;7.01;100.00
40171;BME280;37650;52.790;18.268;2023-04-20T04:20:41;101000.78;;;7.02;100.00
40171;BME280;37650;52.790;18.268;2023-04-20T04:24:04;101002.48;;;7.06;100.00
40171;BME280;37650;52.790;18.268;2023-04-20T04:27:33;101004.48;;;7.12;100.00
40171;BME280;37650;52.790;18.268;2023-04-20T04:30:56;101003.67;;;7.22;100.00
40171;BME280;37650;52.790;18.268;2023-04-20T04:34:18;101003.39;;;7.30;100.00
40171;BME280;37650;52.790;18.268;2023-04-20T04:37:44;101008.55;;;7.35;100.00
40171;BME280;37650;52.790;18.268;2023-04-20T04:41:05;101011.25;;;7.41;100.00
40171;BME280;37650;52.790;18.268;2023-04-20T04:44:27;101016.72;;;7.50;100.00
40171;BME280;37650;52.790;18.268;2023-04-20T04:47:48;101021.52;;;7.55;100.00
40171;BME280;37650;52.790;18.268;2023-04-20T04:51:12;101023.77;;;7.57;100.00
40171;BME280;37650;52.790;18.268;2023-04-20T04:54:33;101027.63;;;7.55;100.00
40171;BME280;37650;52.790;18.268;2023-04-20T04:57:55;101029.27;;;7.51;100.00
40171;BME280;37650;52.790;18.268;2023-04-20T05:01:16;101033.30;;;7.50;100.00
40171;BME280;37650;52.790;18.268;2023-04-20T05:04:38;101034.29;;;7.53;100.00
40171;BME280;37650;52.790;18.268;2023-04-20T05:07:59;101033.33;;;7.61;100.00
40171;BME280;37650;52.790;18.268;2023-04-20T05:11:20;101023.86;;;7.75;100.00
40171;BME280;37650;52.790;18.268;2023-04-20T05:14:41;101030.92;;;7.91;100.00
40171;BME280;37650;52.790;18.268;2023-04-20T05:18:02;101032.86;;;8.01;100.00
40171;BME280;37650;52.790;18.268;2023-04-20T05:21:23;101033.03;;;8.13;100.00
40171;BME280;37650;52.790;18.268;2023-04-20T05:24:45;101032.30;;;8.24;100.00
40171;BME280;37650;52.790;18.268;2023-04-20T05:28:06;101036.23;;;8.41;100.00
40171;BME280;37650;52.790;18.268;2023-04-20T05:31:27;101037.69;;;8.57;100.00
40171;BME280;37650;52.790;18.268;2023-04-20T05:34:49;101036.96;;;8.78;100.00
40171;BME280;37650;52.790;18.268;2023-04-20T05:38:10;101037.27;;;8.98;100.00
40171;BME280;37650;52.790;18.268;2023-04-20T05:41:31;101036.83;;;9.19;100.00
40171;BME280;37650;52.790;18.268;2023-04-20T05:44:53;101038.73;;;9.44;100.00
40171;BME280;37650;52.790;18.268;2023-04-20T05:48:14;101037.95;;;9.64;100.00
40171;BME280;37650;52.790;18.268;2023-04-20T05:51:35;101037.67;;;9.90;100.00
40171;BME280;37650;52.790;18.268;2023-04-20T05:54:56;101044.66;;;10.21;100.00
40171;BME280;37650;52.790;18.268;2023-04-20T05:58:37;101045.13;;;10.44;100.00
40171;BME280;37650;52.790;18.268;2023-04-20T06:01:59;101053.37;;;10.71;100.00
40171;BME280;37650;52.790;18.268;2023-04-20T06:05:21;101055.36;;;10.94;100.00
40171;BME280;37650;52.790;18.268;2023-04-20T06:08:41;101063.12;;;11.06;100.00
40171;BME280;37650;52.790;18.268;2023-04-20T06:12:03;101068.52;;;11.19;100.00
40171;BME280;37650;52.790;18.268;2023-04-20T06:15:24;101070.73;;;11.27;100.00
40171;BME280;37650;52.790;18.268;2023-04-20T06:18:45;101071.78;;;11.39;100.00
40171;BME280;37650;52.790;18.268;2023-04-20T06:22:07;101069.59;;;11.43;100.00
40171;BME280;37650;52.790;18.268;2023-04-20T06:25:28;101074.35;;;11.42;100.00
40171;BME280;37650;52.790;18.268;2023-04-20T06:28:50;101077.92;;;11.16;100.00
40171;BME280;37650;52.790;18.268;2023-04-20T06:32:13;101070.80;;;10.81;100.00
40171;BME280;37650;52.790;18.268;2023-04-20T06:35:33;101065.91;;;10.61;100.00
40171;BME280;37650;52.790;18.268;2023-04-20T06:38:54;101067.22;;;10.65;100.00
40171;BME280;37650;52.790;18.268;2023-04-20T06:42:16;101069.95;;;10.75;100.00
40171;BME280;37650;52.790;18.268;2023-04-20T06:45:38;101066.98;;;10.86;100.00
40171;BME280;37650;52.790;18.268;2023-04-20T06:49:00;101070.77;;;11.02;100.00
40171;BME280;37650;52.790;18.268;2023-04-20T06:52:38;101074.76;;;11.22;100.00
40171;BME280;37650;52.790;18.268;2023-04-20T06:56:08;101073.90;;;11.33;100.00
40171;BME280;37650;52.790;18.268;2023-04-20T06:59:29;101078.96;;;11.47;100.00
40171;BME280;37650;52.790;18.268;2023-04-20T07:02:50;101084.23;;;11.64;100.00
40171;BME280;37650;52.790;18.268;2023-04-20T07:06:11;101079.48;;;11.82;100.00
40171;BME280;37650;52.790;18.268;2023-04-20T07:09:32;101082.30;;;11.70;100.00
40171;BME280;37650;52.790;18.268;2023-04-20T07:12:54;101089.20;;;11.63;100.00
40171;BME280;37650;52.790;18.268;2023-04-20T07:16:15;101095.05;;;11.61;100.00
40171;BME280;37650;52.790;18.268;2023-04-20T07:19:37;101093.35;;;11.59;100.00
40171;BME280;37650;52.790;18.268;2023-04-20T07:22:58;101095.80;;;11.60;100.00
40171;BME280;37650;52.790;18.268;2023-04-20T07:26:20;101097.41;;;11.58;100.00
40171;BME280;37650;52.790;18.268;2023-04-20T07:29:41;101099.66;;;11.53;100.00
40171;BME280;37650;52.790;18.268;2023-04-20T07:33:02;101106.97;;;11.50;100.00
40171;BME280;37650;52.790;18.268;2023-04-20T07:36:24;101106.05;;;11.64;100.00
40171;BME280;37650;52.790;18.268;2023-04-20T07:39:46;101107.66;;;11.80;100.00
40171;BME280;37650;52.790;18.268;2023-04-20T07:43:07;101108.77;;;11.96;100.00
40171;BME280;37650;52.790;18.268;2023-04-20T07:46:28;101106.95;;;12.09;100.00
40171;BME280;37650;52.790;18.268;2023-04-20T07:49:49;101108.73;;;12.19;100.00
40171;BME280;37650;52.790;18.268;2023-04-20T07:53:11;101111.74;;;12.35;100.00
40171;BME280;37650;52.790;18.268;2023-04-20T07:56:32;101113.90;;;12.49;100.00
40171;BME280;37650;52.790;18.268;2023-04-20T07:59:53;101114.37;;;12.66;100.00
40171;BME280;37650;52.790;18.268;2023-04-20T08:03:15;101111.98;;;12.89;100.00
40171;BME280;37650;52.790;18.268;2023-04-20T08:06:36;101107.30;;;13.07;100.00
40171;BME280;37650;52.790;18.268;2023-04-20T08:09:57;101111.14;;;13.29;100.00
40171;BME280;37650;52.790;18.268;2023-04-20T08:13:21;101111.09;;;13.54;100.00
40171;BME280;37650;52.790;18.268;2023-04-20T08:16:42;101116.52;;;13.82;100.00
40171;BME280;37650;52.790;18.268;2023-04-20T08:20:03;101112.19;;;14.15;100.00
40171;BME280;37650;52.790;18.268;2023-04-20T08:23:26;101115.97;;;14.74;100.00
40171;BME280;37650;52.790;18.268;2023-04-20T08:26:50;101116.32;;;15.42;100.00
40171;BME280;37650;52.790;18.268;2023-04-20T08:30:12;101111.14;;;16.22;100.00
40171;BME280;37650;52.790;18.268;2023-04-20T08:33:33;101110.17;;;16.91;100.00
40171;BME280;37650;52.790;18.268;2023-04-20T08:36:55;101110.39;;;17.33;100.00
40171;BME280;37650;52.790;18.268;2023-04-20T08:40:16;101105.67;;;17.81;100.00
40171;BME280;37650;52.790;18.268;2023-04-20T08:43:41;101107.02;;;18.05;100.00
40171;BME280;37650;52.790;18.268;2023-04-20T08:47:03;101105.38;;;17.99;100.00
40171;BME280;37650;52.790;18.268;2023-04-20T08:50:24;101107.53;;;18.15;100.00
40171;BME280;37650;52.790;18.268;2023-04-20T08:53:46;101108.95;;;18.39;99.60
40171;BME280;37650;52.790;18.268;2023-04-20T08:57:07;101111.71;;;18.68;98.41
40171;BME280;37650;52.790;18.268;2023-04-20T09:00:28;101111.52;;;18.89;97.36
40171;BME280;37650;52.790;18.268;2023-04-20T09:03:50;101112.23;;;18.89;93.61
40171;BME280;37650;52.790;18.268;2023-04-20T09:07:21;101113.30;;;19.07;93.55
40171;BME280;37650;52.790;18.268;2023-04-20T09:10:43;101114.55;;;18.95;87.74
40171;BME280;37650;52.790;18.268;2023-04-20T09:14:09;101113.52;;;18.94;85.90
40171;BME280;37650;52.790;18.268;2023-04-20T09:17:36;101111.88;;;18.77;84.19
40171;BME280;37650;52.790;18.268;2023-04-20T09:21:10;101110.40;;;18.81;84.85
40171;BME280;37650;52.790;18.268;2023-04-20T09:24:36;101114.83;;;18.93;82.96
40171;BME280;37650;52.790;18.268;2023-04-20T09:27:59;101115.08;;;18.80;83.52
40171;BME280;37650;52.790;18.268;2023-04-20T09:31:22;101117.23;;;18.88;84.56
40171;BME280;37650;52.790;18.268;2023-04-20T09:34:43;101118.48;;;18.86;81.09
40171;BME280;37650;52.790;18.268;2023-04-20T09:38:05;101119.33;;;18.92;83.28
40171;BME280;37650;52.790;18.268;2023-04-20T09:41:27;101118.95;;;19.07;81.01
40171;BME280;37650;52.790;18.268;2023-04-20T09:44:48;101119.73;;;19.15;80.37
40171;BME280;37650;52.790;18.268;2023-04-20T09:48:10;101124.48;;;19.42;78.93
40171;BME280;37650;52.790;18.268;2023-04-20T09:51:36;101123.72;;;19.74;77.38
40171;BME280;37650;52.790;18.268;2023-04-20T09:54:58;101125.54;;;19.82;76.53
40171;BME280;37650;52.790;18.268;2023-04-20T09:58:19;101122.96;;;19.58;73.95
40171;BME280;37650;52.790;18.268;2023-04-20T10:01:41;101122.05;;;19.64;72.79
40171;BME280;37650;52.790;18.268;2023-04-20T10:05:02;101117.41;;;20.08;69.38
40171;BME280;37650;52.790;18.268;2023-04-20T10:08:23;101120.33;;;20.10;68.57
40171;BME280;37650;52.790;18.268;2023-04-20T10:11:44;101113.09;;;20.23;69.53
40171;BME280;37650;52.790;18.268;2023-04-20T10:15:06;101108.57;;;20.64;68.80
40171;BME280;37650;52.790;18.268;2023-04-20T10:18:28;101104.67;;;20.95;66.37
40171;BME280;37650;52.790;18.268;2023-04-20T10:21:50;101104.14;;;21.16;63.28
40171;BME280;37650;52.790;18.268;2023-04-20T10:25:18;101107.16;;;21.18;63.70
40171;BME280;37650;52.790;18.268;2023-04-20T10:28:41;101101.33;;;21.53;65.71
40171;BME280;37650;52.790;18.268;2023-04-20T10:32:04;101102.59;;;21.50;64.32
40171;BME280;37650;52.790;18.268;2023-04-20T10:35:25;101098.56;;;21.46;64.71
40171;BME280;37650;52.790;18.268;2023-04-20T10:38:46;101095.90;;;21.44;63.96
40171;BME280;37650;52.790;18.268;2023-04-20T10:42:07;101095.00;;;20.72;63.34
40171;BME280;37650;52.790;18.268;2023-04-20T10:45:35;101092.14;;;20.30;62.75
40171;BME280;37650;52.790;18.268;2023-04-20T10:48:59;101083.20;;;20.11;62.67
40171;BME280;37650;52.790;18.268;2023-04-20T10:52:34;101088.90;;;20.85;65.52
40171;BME280;37650;52.790;18.268;2023-04-20T10:55:59;101081.05;;;21.14;63.17
40171;BME280;37650;52.790;18.268;2023-04-20T10:59:22;101081.08;;;21.11;61.26
40171;BME280;37650;52.790;18.268;2023-04-20T11:02:49;101077.09;;;20.78;60.13
40171;BME280;37650;52.790;18.268;2023-04-20T11:06:11;101074.06;;;20.52;59.51
40171;BME280;37650;52.790;18.268;2023-04-20T11:09:33;101077.09;;;20.23;59.33
40171;BME280;37650;52.790;18.268;2023-04-20T11:12:54;101068.02;;;20.44;60.51
40171;BME280;37650;52.790;18.268;2023-04-20T11:16:17;101064.50;;;21.06;62.40
40171;BME280;37650;52.790;18.268;2023-04-20T11:19:39;101064.70;;;21.70;60.86
40171;BME280;37650;52.790;18.268;2023-04-20T11:23:01;101063.32;;;21.82;60.78
40171;BME280;37650;52.790;18.268;2023-04-20T11:26:34;101064.94;;;21.70;59.69
40171;BME280;37650;52.790;18.268;2023-04-20T11:29:56;101069.74;;;21.45;58.96
40171;BME280;37650;52.790;18.268;2023-04-20T11:33:27;101063.39;;;21.69;58.54
40171;BME280;37650;52.790;18.268;2023-04-20T11:36:49;101068.60;;;21.64;55.52
40171;BME280;37650;52.790;18.268;2023-04-20T11:40:16;101070.63;;;21.68;56.34
40171;BME280;37650;52.790;18.268;2023-04-20T11:43:37;101071.48;;;21.78;55.77
40171;BME280;37650;52.790;18.268;2023-04-20T11:46:59;101071.45;;;21.68;55.00
40171;BME280;37650;52.790;18.268;2023-04-20T11:50:22;101069.77;;;21.55;53.81
40171;BME280;37650;52.790;18.268;2023-04-20T11:53:43;101073.09;;;22.07;52.92
40171;BME280;37650;52.790;18.268;2023-04-20T11:57:04;101069.73;;;22.40;51.97
40171;BME280;37650;52.790;18.268;2023-04-20T12:00:25;101066.69;;;22.25;50.93
40171;BME280;37650;52.790;18.268;2023-04-20T12:03:47;101065.28;;;21.77;52.17
40171;BME280;37650;52.790;18.268;2023-04-20T12:07:07;101063.61;;;21.56;53.53
40171;BME280;37650;52.790;18.268;2023-04-20T12:10:29;101061.89;;;21.15;53.14
40171;BME280;37650;52.790;18.268;2023-04-20T12:13:50;101056.90;;;20.84;53.43
40171;BME280;37650;52.790;18.268;2023-04-20T12:17:12;101052.47;;;21.27;53.49
40171;BME280;37650;52.790;18.268;2023-04-20T12:20:33;101050.50;;;21.69;52.49
40171;BME280;37650;52.790;18.268;2023-04-20T12:23:54;101044.99;;;21.66;52.02
40171;BME280;37650;52.790;18.268;2023-04-20T12:27:16;101044.07;;;21.69;50.23
40171;BME280;37650;52.790;18.268;2023-04-20T12:30:38;101047.00;;;21.31;49.84
40171;BME280;37650;52.790;18.268;2023-04-20T12:33:59;101050.39;;;20.75;49.83
40171;BME280;37650;52.790;18.268;2023-04-20T12:37:20;101055.98;;;20.16;50.20
40171;BME280;37650;52.790;18.268;2023-04-20T12:40:41;101069.75;;;19.26;53.82
40171;BME280;37650;52.790;18.268;2023-04-20T12:44:03;101074.70;;;18.39;58.40
40171;BME280;37650;52.790;18.268;2023-04-20T12:47:25;101054.27;;;17.74;62.91
40171;BME280;37650;52.790;18.268;2023-04-20T12:50:46;101047.29;;;17.43;66.74
40171;BME280;37650;52.790;18.268;2023-04-20T12:54:07;101041.09;;;17.33;69.56
40171;BME280;37650;52.790;18.268;2023-04-20T12:57:29;101038.29;;;17.52;71.93
40171;BME280;37650;52.790;18.268;2023-04-20T13:00:50;101035.59;;;17.81;73.66
40171;BME280;37650;52.790;18.268;2023-04-20T13:04:12;101031.13;;;18.13;73.82
40171;BME280;37650;52.790;18.268;2023-04-20T13:07:35;101026.30;;;18.13;72.83
40171;BME280;37650;52.790;18.268;2023-04-20T13:10:57;101024.23;;;18.00;73.50
40171;BME280;37650;52.790;18.268;2023-04-20T13:14:18;101023.30;;;17.97;72.56
40171;BME280;37650;52.790;18.268;2023-04-20T13:17:39;101025.24;;;18.04;72.81
40171;BME280;37650;52.790;18.268;2023-04-20T13:21:01;101021.91;;;18.03;71.30
40171;BME280;37650;52.790;18.268;2023-04-20T13:24:23;101020.10;;;18.07;69.54
40171;BME280;37650;52.790;18.268;2023-04-20T13:27:44;101018.47;;;18.37;66.70
40171;BME280;37650;52.790;18.268;2023-04-20T13:31:05;101019.69;;;18.91;64.78
40171;BME280;37650;52.790;18.268;2023-04-20T13:34:28;101018.95;;;19.48;62.10
40171;BME280;37650;52.790;18.268;2023-04-20T13:37:50;101011.23;;;19.98;59.89
40171;BME280;37650;52.790;18.268;2023-04-20T13:41:12;101012.90;;;20.24;58.07
40171;BME280;37650;52.790;18.268;2023-04-20T13:44:34;101014.91;;;20.39;55.56
40171;BME280;37650;52.790;18.268;2023-04-20T13:47:56;101013.63;;;20.47;56.36
40171;BME280;37650;52.790;18.268;2023-04-20T13:51:18;101010.89;;;20.53;51.85
40171;BME280;37650;52.790;18.268;2023-04-20T13:54:39;101011.09;;;20.56;54.00
40171;BME280;37650;52.790;18.268;2023-04-20T13:58:01;101006.40;;;20.87;54.10
40171;BME280;37650;52.790;18.268;2023-04-20T14:01:23;101006.95;;;20.99;53.14
40171;BME280;37650;52.790;18.268;2023-04-20T14:04:45;101007.84;;;21.23;51.90
40171;BME280;37650;52.790;18.268;2023-04-20T14:08:06;101010.30;;;21.28;49.25
40171;BME280;37650;52.790;18.268;2023-04-20T14:11:28;101008.09;;;21.34;49.47
40171;BME280;37650;52.790;18.268;2023-04-20T14:14:49;101014.86;;;21.54;48.38
40171;BME280;37650;52.790;18.268;2023-04-20T14:18:11;101011.02;;;21.65;48.35
40171;BME280;37650;52.790;18.268;2023-04-20T14:21:32;101011.03;;;21.43;47.27
40171;BME280;37650;52.790;18.268;2023-04-20T14:24:54;101008.22;;;20.92;47.40
40171;BME280;37650;52.790;18.268;2023-04-20T14:28:16;101011.83;;;20.34;47.80
40171;BME280;37650;52.790;18.268;2023-04-20T14:31:38;101010.67;;;19.93;48.78
40171;BME280;37650;52.790;18.268;2023-04-20T14:35:00;101011.73;;;19.55;48.88
40171;BME280;37650;52.790;18.268;2023-04-20T14:38:23;101013.88;;;19.18;49.92
40171;BME280;37650;52.790;18.268;2023-04-20T14:41:45;101013.46;;;18.94;50.97
40171;BME280;37650;52.790;18.268;2023-04-20T14:45:07;101014.88;;;18.73;51.11
40171;BME280;37650;52.790;18.268;2023-04-20T14:48:28;101011.64;;;18.57;51.76
40171;BME280;37650;52.790;18.268;2023-04-20T14:51:49;101007.02;;;18.47;51.37
40171;BME280;37650;52.790;18.268;2023-04-20T14:55:11;101009.70;;;18.65;51.99
40171;BME280;37650;52.790;18.268;2023-04-20T14:58:32;101009.29;;;18.75;51.33
40171;BME280;37650;52.790;18.268;2023-04-20T15:01:53;101010.45;;;18.53;50.76
40171;BME280;37650;52.790;18.268;2023-04-20T15:05:14;101007.89;;;18.36;50.98
40171;BME280;37650;52.790;18.268;2023-04-20T15:08:36;101006.36;;;18.17;51.44
40171;BME280;37650;52.790;18.268;2023-04-20T15:11:57;101006.84;;;18.02;52.44
40171;BME280;37650;52.790;18.268;2023-04-20T15:15:19;101007.88;;;17.88;53.13
40171;BME280;37650;52.790;18.268;2023-04-20T15:18:42;101007.55;;;17.75;53.27
40171;BME280;37650;52.790;18.268;2023-04-20T15:22:04;101007.70;;;17.66;54.17
40171;BME280;37650;52.790;18.268;2023-04-20T15:25:26;101010.77;;;17.62;54.62
40171;BME280;37650;52.790;18.268;2023-04-20T15:28:47;101011.38;;;17.57;54.86
40171;BME280;37650;52.790;18.268;2023-04-20T15:32:09;101010.44;;;17.65;54.98
40171;BME280;37650;52.790;18.268;2023-04-20T15:35:31;101005.70;;;17.70;55.20
40171;BME280;37650;52.790;18.268;2023-04-20T15:38:52;101006.52;;;17.78;55.29
40171;BME280;37650;52.790;18.268;2023-04-20T15:42:13;101004.09;;;17.86;54.57
40171;BME280;37650;52.790;18.268;2023-04-20T15:45:35;101002.85;;;17.92;53.74
40171;BME280;37650;52.790;18.268;2023-04-20T15:48:56;100998.81;;;17.94;53.38
40171;BME280;37650;52.790;18.268;2023-04-20T15:52:17;100994.48;;;18.01;53.70
40171;BME280;37650;52.790;18.268;2023-04-20T15:55:39;100991.98;;;18.05;53.11
40171;BME280;37650;52.790;18.268;2023-04-20T15:59:03;100989.52;;;18.01;53.01
40171;BME280;37650;52.790;18.268;2023-04-20T16:02:24;100987.84;;;18.03;53.10
40171;BME280;37650;52.790;18.268;2023-04-20T16:05:45;100991.90;;;18.06;52.93
40171;BME280;37650;52.790;18.268;2023-04-20T16:09:06;100988.94;;;18.08;53.37
40171;BME280;37650;52.790;18.268;2023-04-20T16:12:28;100990.88;;;18.08;52.49
40171;BME280;37650;52.790;18.268;2023-04-20T16:15:48;100989.59;;;18.06;52.48
40171;BME280;37650;52.790;18.268;2023-04-20T16:19:09;100989.41;;;18.03;52.15
40171;BME280;37650;52.790;18.268;2023-04-20T16:22:32;100987.98;;;18.00;51.88
40171;BME280;37650;52.790;18.268;2023-04-20T16:25:54;100988.84;;;18.00;51.06
40171;BME280;37650;52.790;18.268;2023-04-20T16:29:15;100992.15;;;17.99;50.36
40171;BME280;37650;52.790;18.268;2023-04-20T16:32:36;100990.94;;;17.95;50.65
40171;BME280;37650;52.790;18.268;2023-04-20T16:35:58;100990.30;;;17.94;51.19
40171;BME280;37650;52.790;18.268;2023-04-20T16:39:20;100990.29;;;17.88;51.09
40171;BME280;37650;52.790;18.268;2023-04-20T16:42:41;100989.00;;;17.77;50.98
40171;BME280;37650;52.790;18.268;2023-04-20T16:46:02;100988.80;;;17.64;51.69
40171;BME280;37650;52.790;18.268;2023-04-20T16:49:23;100989.98;;;17.50;51.85
40171;BME280;37650;52.790;18.268;2023-04-20T16:52:45;100995.64;;;17.34;52.25
40171;BME280;37650;52.790;18.268;2023-04-20T16:56:06;100995.45;;;17.18;52.67
40171;BME280;37650;52.790;18.268;2023-04-20T16:59:28;100997.23;;;17.02;53.07
40171;BME280;37650;52.790;18.268;2023-04-20T17:02:49;101000.19;;;16.86;53.75
40171;BME280;37650;52.790;18.268;2023-04-20T17:06:10;101003.77;;;16.69;53.94
40171;BME280;37650;52.790;18.268;2023-04-20T17:09:31;101004.71;;;16.54;54.19
40171;BME280;37650;52.790;18.268;2023-04-20T17:12:52;101006.38;;;16.46;54.83
40171;BME280;37650;52.790;18.268;2023-04-20T17:16:14;101006.92;;;16.38;55.37
40171;BME280;37650;52.790;18.268;2023-04-20T17:19:36;101006.20;;;16.28;56.58